BG-0034 weather

CLOSED Brogovo Airstrip
Brogovo, Vidin Province, Bulgaria

Public forecast

Using degrees Celsius for public forecast. Weather courtesy of forecast.io.

Closest aviation weather report (METAR) to Brogovo Airstrip

Closest report is Craiova Airport, 54.1 nm (100.1 km) ENE. Retrieved 2019/10/22 02:30 UTC (0 seconds ago):

LRCV 220230Z 02003KT 8000 NSC 11/09 Q1023

Closest aviation forecast (TAF) to Brogovo Airstrip

Forecast is more than 12 hours old.

Closest forecast is Craiova Airport, 54.1 nm (100.1 km) ENE. Retrieved 2014/07/19 18:48 UTC (5 years ago):

TAF LRCV 191800Z 1918/2024 CNL